Aérodrome :
LOGIN :

S'inscrire | Disclaimer

   EN    FR    IT 

 










Légende :    VFR   VFR Marginal   IFR   IFR Intensif   IFR Très Intensif
Visi : 
Plafond : 
>= 8 km
>= 3000ft
5 à 8 km
1000 à 3000 ft
1500m à 5 km
500 à 1000 ft
800 à 1500m
200 à 500 ft
< 800m
< 200 ft
Symboles :   Orages  Brouillard  Fortes neiges  Fortes précipitations  Vent > 20 kt
SIGMETs :   Divers  Orages  Givrage  Turbulence  Onde Orograph.  Cendres Volcan.






- Altitude de l'aérodrome : 407 ft


EGDM - MoD Boscombe Down Amesbury

DERNIER METAR :
  • 030801Z 29006KT 6000 1000S VCFG HZ SCT004 14/12 Q1013 BECMG 9999 NSW SCT010 RMK AMB BECMG GRN

METARs EXPIRÉS :
  • 030750Z 31005KT 8000 2000SW VCFG FEW004 14/12 Q1013 BECMG 9999 NSW SCT010 RMK YLO2 BECMG GRN
  • 030730Z 31004KT 8000 4000SE VCFG HZ FEW002 13/12 Q1013 BECMG 9999 NSW RMK GRN BECMG BLU
  • 030720Z 30005KT 8000 1200SE VCFG FEW002 12/11 Q1013 BECMG 9999 NSW RMK AMB BECMG BLU
  • 030655Z 30003KT 9999 0500S VCFG FEW250 12/11 Q1013 BECMG 9999 NSW RMK RED BECMG BLU
  • 030550Z 03002KT 9999 4000E VCFG FEW250 11/11 Q1013 RMK GRN
  • 030450Z AUTO 32005KT //// // FEW001/// 09/08 Q1013

TAF AMD TAF EGDM
Valide du 03 à 07h jusqu'au 03 à 15h UTC


030652Z 0307/0315 VRB03KT 2000 BR NSC
BECMG 0307/0309 9999 NSW SCT012
PROB30 0307/0309 0100 FG BKN001
BECMG 0309/0311 SCT035
PROB30
TEMPO 0310/0315 6000 SHRA SCT024



MET'MAP, la Météo Aéronautique d'un coup d'oeil ! - Copyright ORBIFLY Décembre 2007 - Disclaimer

ORBIFLY MET'MAP TEAM :

Programmation & Développement : Alexandra Zaïnal
Sur une idée originale de : Baudouin d'Aumeries
Assistance à la programmation : Marc-Olivier Méhu
Soutien technique & logistique : Manuel Goepfert

Contact : metmap@orbifly.com




SOURCES & CREDITS :

   NOAA